Tarifa, Spain
Current Conditions -  °F | °C
As of 1:30 PM on Thursday 30 Oct 2014 (Local Time) from LEAG Reporting Station
Broken Clouds Broken Clouds  
Wind Chill: 70°   Ceiling: 2100
Heat Index: 70°   Visibility: 6mi
Dew Point: 63°   Wind: 15mph
Humidity: 78%   Direction: 80°E
Pressure: 30.12"   Gusts: NA
Location:  36.01°N, 5.6°W
Report Text: LEAG 301230Z AUTO 08013KT 9999 BKN021 BKN032 21/17 Q1020
Loading
Personal Weather Stations






























Interactive Weather Map
Tropical Storm Tracking
New forecast layout! Learn more

10-Day Weather Forecast

Advertisements
Track Severe Weather on mobile